»·PEaware :: N286WF KSBP-KMHV

N286WF :: KSBP-KMHV

FLIGHT INFORMATION

Flight Status: Arrived
Operator: Privately registered:
United States
More flights under this callsign
Pilot: Frank W. (16848)
Aircraft: Unknown
(P28U)
More flights by this aircraft type
Origin: KSBP San Luis Co Regl
United States
Destination: KMHV Mojave
United States
More flights between these airports :: More routes between these airports
Route: +
File this flight plan on PilotEdge
Remarks:
Altitude:
(Current/Filed)
6,500ft
Speed:
(Current/Filed)
140kts
Departed: 04-Aug-18 06:22 PM
Arrived: 04-Aug-18 07:13 PM
Distance/Time
Traveled:
0nm/0:51
Distance/Time
To Go:
Arrived

Flight Plot

Page will automatically refresh every two minutes.

Flight plan parsing failed; only flown route is shown


Map Options




Map Legend


Flown Route
Filed Route
Departure Airport
Arrival Airport
Navaid (VOR, NDB)
Fix

Horizontal Profiles

Position Reports

Time Latitude Longitude Heading Altitude Ground
Speed
04-Aug-18 18:13 35.236510 -120.636899 125 215ft 0kts
04-Aug-18 18:14 35.236507 -120.636894 125 215ft 1kts
04-Aug-18 18:15 35.234969 -120.634956 124 215ft 22kts
04-Aug-18 18:16 35.233210 -120.632010 292 215ft 0kts
04-Aug-18 18:17 35.233210 -120.632010 292 215ft 0kts
04-Aug-18 18:18 35.233210 -120.632011 292 215ft 0kts
04-Aug-18 18:19 35.233232 -120.632065 284 215ft 0kts
04-Aug-18 18:20 35.233232 -120.632065 284 215ft 0kts
04-Aug-18 18:21 35.233142 -120.632398 208 215ft 0kts
04-Aug-18 18:22 35.232913 -120.632575 225 215ft 6kts
04-Aug-18 18:23 35.236216 -120.638832 298 616ft 42kts
04-Aug-18 18:24 35.227487 -120.652982 178 1834ft 109kts
04-Aug-18 18:25 35.211441 -120.615530 109 3065ft 130kts
04-Aug-18 18:26 35.202203 -120.573402 89 4608ft 117kts
04-Aug-18 18:27 35.210563 -120.534768 97 5961ft 131kts
04-Aug-18 18:28 35.193963 -120.490813 112 6592ft 160kts
04-Aug-18 18:29 35.179553 -120.436277 78 6409ft 171kts
04-Aug-18 18:30 35.187761 -120.381638 93 6591ft 166kts
04-Aug-18 18:31 35.178755 -120.326023 101 6545ft 169kts
04-Aug-18 18:32 35.168390 -120.269715 101 6504ft 168kts
04-Aug-18 18:33 35.157880 -120.214117 102 6507ft 168kts
04-Aug-18 18:34 35.147563 -120.158799 102 6510ft 164kts
04-Aug-18 18:35 35.138296 -120.106613 102 6505ft 163kts
04-Aug-18 18:36 35.127826 -120.051305 102 6449ft 170kts
04-Aug-18 18:37 35.117075 -119.995614 102 6477ft 165kts
04-Aug-18 18:38 35.106801 -119.940696 103 6516ft 168kts
04-Aug-18 18:39 35.096218 -119.884705 103 6513ft 169kts
04-Aug-18 18:40 35.092077 -119.828173 90 6511ft 168kts
04-Aug-18 18:41 35.091358 -119.772431 90 6510ft 163kts
04-Aug-18 18:42 35.090547 -119.716988 90 6506ft 164kts
04-Aug-18 18:43 35.089719 -119.661350 90 6500ft 164kts
04-Aug-18 18:44 35.088899 -119.605785 89 6494ft 164kts
04-Aug-18 18:45 35.088073 -119.549975 88 6488ft 164kts
04-Aug-18 18:46 35.087139 -119.494370 88 6483ft 164kts
04-Aug-18 18:47 35.086184 -119.438841 88 6484ft 164kts
04-Aug-18 18:48 35.085222 -119.383354 88 6484ft 164kts
04-Aug-18 18:49 35.084274 -119.329490 89 6482ft 164kts
04-Aug-18 18:50 35.083274 -119.274384 89 6482ft 164kts
04-Aug-18 18:51 35.082247 -119.219157 89 6482ft 164kts
04-Aug-18 18:52 35.081196 -119.163818 89 6482ft 164kts
04-Aug-18 18:53 35.080121 -119.108566 89 6482ft 164kts
04-Aug-18 18:54 35.079005 -119.053109 89 6482ft 164kts
04-Aug-18 18:55 35.077907 -118.997869 89 6506ft 163kts
04-Aug-18 18:56 35.076773 -118.942323 89 6546ft 164kts
04-Aug-18 18:57 35.075729 -118.889402 88 7382ft 142kts
04-Aug-18 18:58 35.074572 -118.836029 89 7732ft 177kts
04-Aug-18 18:59 35.073162 -118.773401 89 7480ft 182kts
04-Aug-18 19:00 35.072131 -118.715943 88 7688ft 161kts
04-Aug-18 19:01 35.071919 -118.661066 81 7844ft 161kts
04-Aug-18 19:02 35.083242 -118.606099 68 7528ft 175kts
04-Aug-18 19:03 35.095738 -118.551150 72 7537ft 168kts
04-Aug-18 19:04 35.104381 -118.495960 80 6272ft 165kts
04-Aug-18 19:05 35.107275 -118.445401 96 6565ft 157kts
04-Aug-18 19:06 35.085799 -118.402342 124 7244ft 154kts
04-Aug-18 19:07 35.065580 -118.355051 97 7265ft 161kts
04-Aug-18 19:08 35.062755 -118.300717 88 5815ft 154kts
04-Aug-18 19:09 35.073670 -118.261542 96 4294ft 145kts
04-Aug-18 19:10 35.074445 -118.216295 96 4182ft 144kts
04-Aug-18 19:11 35.070187 -118.166511 88 3731ft 138kts
04-Aug-18 19:12 35.069082 -118.126250 146 3590ft 119kts
04-Aug-18 19:13 35.058973 -118.143077 282 2770ft 55kts
04-Aug-18 19:14 35.058241 -118.148981 230 2745ft 1kts
04-Aug-18 19:15 35.057406 -118.151826 219 2750ft 10kts
04-Aug-18 19:16 35.056892 -118.152458 181 2751ft 0kts
04-Aug-18 19:17 35.056892 -118.152458 181 2751ft 0kts
04-Aug-18 19:18 35.056892 -118.152458 181 2751ft 0kts
04-Aug-18 19:19 35.056892 -118.152458 181 2751ft 0kts
04-Aug-18 19:20 35.056892 -118.152458 181 2751ft 0kts
04-Aug-18 19:21 35.056892 -118.152458 181 2751ft 0kts
04-Aug-18 19:22 35.056892 -118.152458 181 2751ft 0kts
04-Aug-18 19:23 35.056892 -118.152458 181 2751ft 0kts
04-Aug-18 19:24 35.056892 -118.152458 181 2751ft 0kts
04-Aug-18 19:25 35.056892 -118.152458 181 2751ft 0kts
04-Aug-18 19:26 35.236510 -120.636899 125 215ft 0kts

Navigation Log

Ident Type
Flight plan parsing failed, navigation log unavailable